Time;durP1;ratioP1;P1;durP2;ratioP2;P2;SDS_P1;SDS_P2;PMS_P1;PMS_P2;Temp;Humidity;BMP_temperature;BMP_pressure;BME280_temperature;BME280_humidity;BME280_pressure;Samples;Min_cycle;Max_cycle;Signal;HPM_P1;HPM_P2
2022/12/07 00:01:36;;;;;;;15.00;8.73;;;;;;;5.64;82.33;96573.84;5116374;28;20481;-63
2022/12/07 00:04:06;;;;;;;17.50;9.88;;;;;;;5.55;81.71;96577.44;5116081;28;20283;-63
2022/12/07 00:06:34;;;;;;;;;;;;;;;5.40;81.56;96570.78;5116616;28;20047;-63
2022/12/07 00:09:01;;;;;;;17.92;9.57;;;;;;;5.22;81.83;96577.13;5116153;28;19926;-63
2022/12/07 00:11:29;;;;;;;22.15;10.75;;;;;;;5.13;82.08;96578.13;5116145;28;20044;-62
2022/12/07 00:13:59;;;;;;;16.83;9.98;;;;;;;5.00;81.99;96578.31;5116029;28;20147;-63
2022/12/07 00:16:29;;;;;;;16.67;10.00;;;;;;;4.84;81.48;96582.03;5116022;28;20051;-62
2022/12/07 00:18:56;;;;;;;16.52;9.95;;;;;;;4.72;81.55;96577.88;5115864;28;20051;-62
2022/12/07 00:21:28;;;;;;;15.48;9.43;;;;;;;4.69;81.28;96568.38;5115953;28;20464;-63
2022/12/07 00:23:57;;;;;;;15.43;9.60;;;;;;;4.55;81.52;96571.19;5115976;28;20116;-62
2022/12/07 00:26:29;;;;;;;16.20;9.95;;;;;;;4.44;81.30;96571.31;5115847;28;20040;-62
2022/12/07 00:29:02;;;;;;;18.50;10.32;;;;;;;4.33;81.61;96561.09;5115594;28;20055;-63
2022/12/07 00:31:33;;;;;;;17.35;9.98;;;;;;;4.32;81.36;96569.75;5115687;28;20489;-63
2022/12/07 00:34:01;;;;;;;17.38;9.55;;;;;;;4.19;81.68;96570.78;5115637;28;20532;-63
2022/12/07 00:36:30;;;;;;;19.05;10.68;;;;;;;4.16;82.10;96580.28;5115458;28;20126;-63
2022/12/07 00:39:02;;;;;;;20.20;11.30;;;;;;;4.13;82.46;96572.53;5115546;28;20051;-63
2022/12/07 00:41:30;;;;;;;17.80;10.10;;;;;;;4.11;82.92;96576.03;5115324;28;20045;-63
2022/12/07 00:43:58;;;;;;;19.05;10.85;;;;;;;4.10;83.38;96569.16;5115464;28;20089;-63
2022/12/07 00:46:27;;;;;;;18.40;11.23;;;;;;;4.06;83.90;96570.91;5115449;28;20455;-63
2022/12/07 00:48:55;;;;;;;21.70;10.95;;;;;;;4.10;84.10;96571.75;5115122;28;20044;-62
2022/12/07 00:51:24;;;;;;;17.98;11.30;;;;;;;4.04;84.10;96568.34;5115325;28;20055;-63
2022/12/07 00:53:54;;;;;;;17.63;10.40;;;;;;;4.01;84.04;96563.19;5114235;28;20051;-63
2022/12/07 00:56:27;;;;;;;16.65;10.85;;;;;;;4.06;84.12;96570.06;5115270;28;20481;-62
2022/12/07 00:58:56;;;;;;;15.20;9.80;;;;;;;4.03;83.85;96570.94;5115013;28;20048;-63
2022/12/07 01:01:27;;;;;;;15.32;9.90;;;;;;;3.99;84.17;96564.09;5115061;28;20495;-63
2022/12/07 01:03:58;;;;;;;15.95;9.93;;;;;;;3.95;83.54;96565.88;5114989;28;20126;-63
2022/12/07 01:06:27;;;;;;;21.38;11.52;;;;;;;3.95;83.64;96562.41;5114916;28;20050;-62
2022/12/07 01:08:56;;;;;;;16.92;10.57;;;;;;;3.94;83.58;96558.97;5114991;28;20130;-63
2022/12/07 01:11:26;;;;;;;18.50;10.57;;;;;;;3.85;83.82;96548.72;5115034;28;20075;-63
2022/12/07 01:13:56;;;;;;;20.30;11.18;;;;;;;3.76;83.62;96547.06;5114966;28;20096;-62
2022/12/07 01:16:27;;;;;;;13.32;8.45;;;;;;;3.73;83.83;96550.56;5114817;28;20451;-63
2022/12/07 01:18:58;;;;;;;19.45;10.48;;;;;;;3.61;83.66;96551.53;5114623;28;20048;-63
2022/12/07 01:21:34;;;;;;;;;;;;;;;3.51;83.54;96550.78;5115087;28;20048;-61
2022/12/07 01:24:03;;;;;;;20.33;10.15;;;;;;;3.49;83.83;96543.91;5114628;28;19923;-61
2022/12/07 01:26:32;;;;;;;18.58;10.55;;;;;;;3.54;83.93;96550.75;5114641;28;20061;-61
2022/12/07 01:29:01;;;;;;;22.55;10.27;;;;;;;3.54;84.51;96547.31;5114532;28;20568;-61
2022/12/07 01:31:32;;;;;;;17.05;10.35;;;;;;;3.55;84.63;96538.66;5114556;28;20123;-63
2022/12/07 01:34:02;;;;;;;22.13;10.98;;;;;;;3.58;84.89;96541.22;5114496;28;20047;-62
2022/12/07 01:36:31;;;;;;;22.48;11.32;;;;;;;3.63;85.04;96536.88;5114504;28;20432;-63
2022/12/07 01:39:01;;;;;;;15.75;10.63;;;;;;;3.62;84.91;96529.13;5114253;28;20122;-63
2022/12/07 01:41:32;;;;;;;15.20;9.07;;;;;;;3.63;85.19;96523.94;5114065;28;20374;-62
2022/12/07 01:44:31;;;;;;;17.85;10.93;;;;;;;3.69;85.50;96527.31;5114302;28;20284;-61
2022/12/07 01:47:00;;;;;;;18.13;11.40;;;;;;;3.71;85.65;96538.50;5114380;28;20043;-63
2022/12/07 01:49:33;;;;;;;17.05;10.60;;;;;;;3.73;85.79;96529.84;5114276;28;20417;-63
2022/12/07 01:52:08;;;;;;;20.50;10.77;;;;;;;3.77;85.89;96523.75;5114194;28;20097;-63
2022/12/07 01:54:37;;;;;;;22.23;11.32;;;;;;;3.75;85.96;96528.13;5114148;28;20047;-63
2022/12/07 01:57:07;;;;;;;18.70;11.52;;;;;;;3.81;85.96;96524.59;5114000;28;20093;-63
2022/12/07 01:59:35;;;;;;;19.13;10.98;;;;;;;3.82;85.96;96518.53;5113876;28;20079;-63
2022/12/07 02:02:05;;;;;;;19.05;10.63;;;;;;;3.81;86.48;96508.22;5113999;28;20443;-63
2022/12/07 02:04:33;;;;;;;27.67;11.90;;;;;;;3.81;86.41;96516.84;5113598;28;20512;-63
2022/12/07 02:07:01;;;;;;;22.88;11.40;;;;;;;3.85;86.57;96513.34;5113827;28;20100;-63
2022/12/07 02:09:28;;;;;;;16.85;10.07;;;;;;;3.88;86.63;96515.03;5113974;28;20054;-63
2022/12/07 02:11:56;;;;;;;19.20;10.10;;;;;;;3.89;86.39;96507.25;5113875;28;20090;-63
2022/12/07 02:14:24;;;;;;;24.52;10.88;;;;;;;3.95;86.27;96502.88;5113853;28;20047;-63
2022/12/07 02:17:05;;;;;;;22.15;10.68;;;;;;;4.00;86.78;96507.13;5113818;28;20130;-63
2022/12/07 02:20:01;;;;;;;22.98;12.13;;;;;;;3.99;86.66;96504.53;5113624;28;20059;-63
2022/12/07 02:22:57;;;;;;;25.00;12.07;;;;;;;3.97;87.23;96496.78;5113717;28;20061;-63
2022/12/07 02:25:42;;;;;;;22.02;11.18;;;;;;;4.03;87.37;96494.13;5113808;28;20128;-63
2022/12/07 02:28:20;;;;;;;23.02;12.30;;;;;;;4.07;87.55;96501.88;5113582;28;20131;-63
2022/12/07 02:30:51;;;;;;;19.38;11.80;;;;;;;4.08;87.40;96499.25;5113554;28;20049;-63
2022/12/07 02:33:25;;;;;;;16.52;10.75;;;;;;;4.11;87.56;96496.63;5113553;28;20096;-63
2022/12/07 02:36:00;;;;;;;15.90;10.50;;;;;;;4.15;87.41;96495.72;5113639;28;20536;-62
2022/12/07 02:38:36;;;;;;;16.48;10.48;;;;;;;4.18;87.40;96497.41;5113551;28;20051;-63
2022/12/07 02:41:07;;;;;;;20.08;10.70;;;;;;;4.21;87.22;96496.53;5113287;28;20058;-63
2022/12/07 02:43:39;;;;;;;19.00;10.80;;;;;;;4.23;87.34;96498.22;5113471;28;20069;-62
2022/12/07 02:46:12;;;;;;;19.48;10.90;;;;;;;4.25;87.49;96496.44;5113369;28;20040;-63
2022/12/07 02:48:43;;;;;;;16.10;10.80;;;;;;;4.28;87.48;96490.38;5113351;28;20052;-63
2022/12/07 02:51:10;;;;;;;22.65;11.90;;;;;;;4.26;87.43;96489.53;5113421;28;20515;-63
2022/12/07 02:53:41;;;;;;;22.70;12.15;;;;;;;4.27;87.78;96491.22;5113429;28;20044;-63
2022/12/07 02:56:23;;;;;;;17.15;10.55;;;;;;;4.30;87.98;96486.88;5113466;28;20070;-62
2022/12/07 02:59:03;;;;;;;23.25;12.52;;;;;;;4.33;87.90;96485.97;5113375;28;20087;-62
2022/12/07 03:01:48;;;;;;;26.45;10.95;;;;;;;4.36;87.63;96490.28;5113413;28;20086;-63
2022/12/07 03:04:28;;;;;;;21.88;10.95;;;;;;;4.34;87.61;96479.94;5113257;28;20044;-63
2022/12/07 03:07:01;;;;;;;16.30;10.43;;;;;;;4.36;87.14;96485.94;5113255;28;20116;-62
2022/12/07 03:09:35;;;;;;;19.10;11.82;;;;;;;4.38;87.23;96484.19;5113210;28;20044;-63
2022/12/07 03:12:11;;;;;;;18.75;11.30;;;;;;;4.36;87.26;96480.75;5113231;28;20535;-63
2022/12/07 03:14:43;;;;;;;15.45;10.85;;;;;;;4.38;86.89;96491.09;5113278;28;20052;-62
2022/12/07 03:17:17;;;;;;;17.45;10.88;;;;;;;4.40;87.09;96485.00;5114487;28;20089;-62
2022/12/07 03:19:47;;;;;;;15.82;10.10;;;;;;;4.42;87.11;96485.84;5117077;28;20050;-62
2022/12/07 03:22:16;;;;;;;13.63;7.50;;;;;;;4.43;87.34;96478.94;5117054;28;20050;-61
2022/12/07 03:24:49;;;;;;;15.90;9.63;;;;;;;4.46;87.22;96484.09;5116968;28;20050;-63
2022/12/07 03:27:21;;;;;;;16.08;10.18;;;;;;;4.49;87.17;96483.19;5116921;28;20086;-63
2022/12/07 03:29:55;;;;;;;18.30;10.70;;;;;;;4.53;87.43;96487.44;5116949;28;20490;-62
2022/12/07 03:32:30;;;;;;;18.35;11.02;;;;;;;4.58;87.28;96490.81;5116819;28;20106;-63
2022/12/07 03:35:03;;;;;;;20.08;11.73;;;;;;;4.59;87.48;96487.34;5116825;28;20066;-63
2022/12/07 03:37:36;;;;;;;17.55;10.65;;;;;;;4.61;87.64;96482.16;5116837;28;20043;-63
2022/12/07 03:40:08;;;;;;;21.38;11.20;;;;;;;4.66;87.58;96491.56;5116384;28;20633;-62
2022/12/07 03:42:36;;;;;;;19.73;10.82;;;;;;;4.67;87.50;96489.81;5116791;28;20079;-63
2022/12/07 03:45:07;;;;;;;18.52;11.02;;;;;;;4.68;87.33;96495.00;5116746;28;20043;-63
2022/12/07 03:47:44;;;;;;;20.23;10.65;;;;;;;4.67;87.05;96482.88;5116591;28;20054;-62
2022/12/07 03:50:22;;;;;;;21.70;9.88;;;;;;;4.63;86.99;96478.63;5116535;28;20075;-62
2022/12/07 03:52:57;;;;;;;16.48;10.20;;;;;;;4.68;86.91;96481.16;5116467;28;20052;-63
2022/12/07 03:55:29;;;;;;;16.88;10.23;;;;;;;4.70;87.18;96479.41;5115903;28;20131;-63
2022/12/07 03:57:59;;;;;;;17.38;11.27;;;;;;;4.71;86.99;96475.94;5116378;28;20461;-63
2022/12/07 04:00:28;;;;;;;20.13;12.15;;;;;;;4.65;87.07;96482.06;5116330;28;20100;-63
2022/12/07 04:02:57;;;;;;;21.70;11.50;;;;;;;4.62;87.52;96479.53;5116273;28;20120;-63
2022/12/07 04:05:26;;;;;;;21.67;11.60;;;;;;;4.68;87.32;96482.03;5116216;28;20051;-62
2022/12/07 04:07:55;;;;;;;23.67;10.80;;;;;;;4.72;87.46;96482.00;5116077;28;20044;-63
2022/12/07 04:10:22;;;;;;;17.08;11.48;;;;;;;4.76;87.57;96476.69;5116056;28;20481;-62
2022/12/07 04:12:51;;;;;;;16.80;10.52;;;;;;;4.79;87.68;96473.22;5116028;28;20051;-63
2022/12/07 04:15:19;;;;;;;17.70;10.65;;;;;;;4.80;87.33;96462.84;5115996;28;20071;-63
2022/12/07 04:17:47;;;;;;;16.45;11.07;;;;;;;4.80;87.29;96469.75;5116034;28;20051;-63
2022/12/07 04:20:16;;;;;;;17.77;9.93;;;;;;;4.80;86.99;96464.56;5115810;28;20108;-63
2022/12/07 04:22:44;;;;;;;17.67;10.88;;;;;;;4.79;87.20;96465.44;5115871;28;20073;-62
2022/12/07 04:25:12;;;;;;;17.15;10.75;;;;;;;4.76;87.41;96455.97;5115927;28;20055;-62
2022/12/07 04:27:43;;;;;;;17.25;11.18;;;;;;;4.78;87.58;96461.13;5115647;28;20048;-62
2022/12/07 04:30:12;;;;;;;19.95;10.20;;;;;;;4.79;87.49;96458.50;5115961;28;20524;-63
2022/12/07 04:32:39;;;;;;;16.92;10.75;;;;;;;4.79;87.66;96445.56;5115734;28;20054;-63
2022/12/07 04:35:08;;;;;;;18.20;10.00;;;;;;;4.78;87.59;96456.81;5115689;28;20104;-62
2022/12/07 04:37:38;;;;;;;23.27;11.07;;;;;;;4.74;87.44;96457.75;5115681;28;20055;-62
2022/12/07 04:40:07;;;;;;;;;;;;;;;4.75;87.66;96456.84;5115736;28;20052;-63
2022/12/07 04:42:35;;;;;;;20.23;10.93;;;;;;;4.74;87.73;96468.13;5115566;28;19926;-63
2022/12/07 04:45:02;;;;;;;18.05;11.10;;;;;;;4.75;87.87;96469.81;5115449;28;20572;-63
2022/12/07 04:47:30;;;;;;;18.65;11.73;;;;;;;4.79;87.95;96474.06;5115405;28;20051;-63
2022/12/07 04:49:57;;;;;;;27.17;12.35;;;;;;;4.84;87.99;96474.00;5115365;28;20048;-63
2022/12/07 04:52:25;;;;;;;15.65;9.65;;;;;;;4.86;87.69;96469.66;5115283;28;20047;-63
2022/12/07 04:54:59;;;;;;;17.17;10.18;;;;;;;4.88;87.86;96467.03;5115238;28;20044;-62
2022/12/07 04:57:30;;;;;;;16.95;10.52;;;;;;;4.90;87.73;96467.84;5115161;28;20071;-62
2022/12/07 04:59:58;;;;;;;17.27;10.00;;;;;;;4.90;87.64;96466.13;5115186;28;20104;-63
2022/12/07 05:02:29;;;;;;;16.15;10.48;;;;;;;4.92;87.66;96466.97;5114970;28;20052;-63
2022/12/07 05:04:57;;;;;;;17.58;10.05;;;;;;;4.93;87.80;96466.06;5115153;28;20043;-62
2022/12/07 05:07:25;;;;;;;20.40;9.98;;;;;;;4.93;87.67;96466.06;5114217;28;20089;-63
2022/12/07 05:09:54;;;;;;;16.77;10.63;;;;;;;4.96;87.49;96466.91;5114951;28;20066;-62
2022/12/07 05:12:22;;;;;;;16.33;10.07;;;;;;;4.97;87.41;96468.63;5114878;28;20051;-63
2022/12/07 05:14:52;;;;;;;22.08;11.43;;;;;;;4.97;87.34;96466.03;5115087;28;20493;-62
2022/12/07 05:17:23;;;;;;;17.75;10.77;;;;;;;5.00;87.43;96465.97;5114828;28;20087;-63
2022/12/07 05:19:51;;;;;;;15.82;10.40;;;;;;;5.00;87.14;96468.56;5114817;28;20048;-62
2022/12/07 05:22:20;;;;;;;21.95;10.68;;;;;;;5.00;87.26;96473.75;5114731;28;20378;-62
2022/12/07 05:24:48;;;;;;;24.80;10.55;;;;;;;5.00;87.01;96473.75;5114513;28;20480;-63
2022/12/07 05:27:16;;;;;;;17.23;9.25;;;;;;;5.00;87.30;96473.75;5114686;28;20075;-63
2022/12/07 05:29:44;;;;;;;15.57;10.20;;;;;;;4.97;87.06;96461.69;5114540;28;20450;-63
2022/12/07 05:32:11;;;;;;;20.08;10.52;;;;;;;4.90;86.93;96466.13;5114508;28;20127;-63
2022/12/07 05:34:38;;;;;;;17.58;10.15;;;;;;;4.91;87.24;96460.03;5114480;28;20074;-61
2022/12/07 05:37:05;;;;;;;16.02;9.88;;;;;;;4.91;86.64;96467.00;5114590;28;20096;-63
2022/12/07 05:39:33;;;;;;;15.20;10.32;;;;;;;4.84;86.72;96463.63;5113774;28;20083;-63
2022/12/07 05:42:15;;;;;;;16.40;10.00;;;;;;;4.83;86.58;96469.69;5113996;28;20052;-63
2022/12/07 05:44:46;;;;;;;17.15;11.63;;;;;;;4.75;86.42;96468.94;5114366;28;20047;-62
2022/12/07 05:47:14;;;;;;;17.83;10.55;;;;;;;4.73;86.09;96465.53;5114137;28;20515;-61
2022/12/07 05:49:41;;;;;;;17.02;10.85;;;;;;;4.55;85.42;96460.59;5114263;28;20048;-63
2022/12/07 05:52:08;;;;;;;16.98;10.38;;;;;;;4.45;85.28;96468.56;5114121;28;20080;-62
2022/12/07 05:54:35;;;;;;;20.25;11.32;;;;;;;4.42;85.10;96474.63;5114069;28;20043;-62
2022/12/07 05:57:03;;;;;;;23.27;12.60;;;;;;;4.42;84.93;96472.91;5114178;28;20040;-63
2022/12/07 05:59:29;;;;;;;20.00;12.20;;;;;;;4.37;84.55;96474.69;5114149;28;20429;-61
2022/12/07 06:02:00;;;;;;;22.63;11.27;;;;;;;4.30;84.34;96484.28;5113960;28;20050;-62
2022/12/07 06:04:29;;;;;;;17.73;11.40;;;;;;;4.31;84.36;96482.56;5113968;28;20039;-63
2022/12/07 06:06:57;;;;;;;19.70;10.02;;;;;;;4.34;84.11;96485.13;5114128;28;20047;-62
2022/12/07 06:09:25;;;;;;;16.27;10.02;;;;;;;4.35;84.22;96491.13;5113843;28;20465;-62
2022/12/07 06:14:37;;;;;;;18.45;11.00;;;;;;;4.43;84.19;96486.72;5113872;28;20053;-63
2022/12/07 06:17:07;;;;;;;19.48;10.85;;;;;;;4.45;84.43;96482.34;5113794;28;20071;-61
2022/12/07 06:19:35;;;;;;;17.85;10.07;;;;;;;4.49;84.73;96483.19;5113651;28;20563;-61
2022/12/07 06:22:04;;;;;;;23.27;11.40;;;;;;;4.51;85.02;96486.59;5113610;28;20051;-60
2022/12/07 06:24:32;;;;;;;21.60;11.40;;;;;;;4.54;85.53;96479.63;5113607;28;20056;-61
2022/12/07 06:27:00;;;;;;;22.80;13.27;;;;;;;4.60;85.75;96470.91;5113608;28;20122;-61
2022/12/07 06:29:28;;;;;;;18.90;11.57;;;;;;;4.78;86.80;96481.88;5113171;28;20130;-63
2022/12/07 06:31:55;;;;;;;24.92;12.13;;;;;;;4.99;87.23;96482.41;5113549;28;20039;-63
2022/12/07 06:34:26;;;;;;;21.88;11.57;;;;;;;5.24;87.13;96477.63;5113520;28;20051;-63
2022/12/07 06:36:54;;;;;;;19.85;10.43;;;;;;;5.47;86.26;96484.16;5113452;28;20134;-63
2022/12/07 06:39:24;;;;;;;16.00;10.30;;;;;;;5.62;85.05;96477.81;5113498;28;20047;-63
2022/12/07 06:41:53;;;;;;;13.38;9.75;;;;;;;5.74;83.65;96471.53;5113261;28;20522;-63
2022/12/07 06:44:21;;;;;;;13.25;9.60;;;;;;;5.79;83.27;96474.06;5113475;28;20047;-62
2022/12/07 06:46:49;;;;;;;16.45;10.73;;;;;;;5.85;83.26;96479.13;5113523;28;20040;-62
2022/12/07 06:49:17;;;;;;;20.25;11.18;;;;;;;5.91;83.35;96478.13;5113434;28;20054;-62
2022/12/07 06:51:46;;;;;;;14.65;9.82;;;;;;;5.98;83.43;96484.06;5113896;28;20054;-63
2022/12/07 06:54:15;;;;;;;16.38;10.25;;;;;;;6.02;83.17;96476.16;5117530;28;20049;-63
2022/12/07 06:56:43;;;;;;;11.68;8.05;;;;;;;6.15;82.84;96486.34;5117622;28;20485;-63
2022/12/07 06:59:10;;;;;;;17.27;10.88;;;;;;;6.23;82.34;96481.00;5117556;28;20055;-63
2022/12/07 07:01:38;;;;;;;22.27;10.95;;;;;;;6.29;82.14;96483.47;5117475;28;20051;-63
2022/12/07 07:04:05;;;;;;;19.13;11.77;;;;;;;6.28;82.11;96484.31;5117450;28;20097;-62
2022/12/07 07:06:32;;;;;;;16.33;11.65;;;;;;;6.29;81.88;96483.47;5117471;28;20043;-63
2022/12/07 07:09:02;;;;;;;17.88;11.55;;;;;;;6.32;81.60;96479.03;5117381;28;20050;-62
2022/12/07 07:11:29;;;;;;;21.02;13.13;;;;;;;6.34;81.70;96478.13;5117253;28;20043;-62
2022/12/07 07:14:01;;;;;;;17.65;12.15;;;;;;;6.36;82.12;96487.63;5117274;28;20048;-63
2022/12/07 07:16:29;;;;;;;20.88;12.32;;;;;;;6.39;81.92;96484.09;5117292;28;20048;-63
2022/12/07 07:18:57;;;;;;;18.88;12.88;;;;;;;6.42;81.92;96484.88;5117218;28;20047;-63
2022/12/07 07:21:24;;;;;;;21.48;12.10;;;;;;;6.48;82.21;96483.03;5117125;28;20055;-62
2022/12/07 07:23:51;;;;;;;19.48;12.27;;;;;;;6.57;81.91;96483.66;5117107;28;20089;-63
2022/12/07 07:26:21;;;;;;;20.85;13.52;;;;;;;6.65;82.43;96488.69;5117006;28;20382;-63
2022/12/07 07:28:48;;;;;;;22.42;13.32;;;;;;;6.69;82.61;96490.34;5116942;28;20544;-63
2022/12/07 07:31:16;;;;;;;21.08;13.35;;;;;;;6.90;82.51;96485.53;5116988;28;20043;-63
2022/12/07 07:33:43;;;;;;;21.23;14.05;;;;;;;7.10;82.32;96491.13;5116796;28;20507;-63
2022/12/07 07:36:10;;;;;;;21.00;11.75;;;;;;;7.29;81.25;96487.16;5116630;28;20054;-63
2022/12/07 07:38:37;;;;;;;20.80;10.63;;;;;;;7.55;79.59;96493.44;5116866;28;20054;-62
2022/12/07 07:41:05;;;;;;;17.42;11.98;;;;;;;7.87;78.49;96493.47;5116468;28;20051;-63
2022/12/07 07:43:33;;;;;;;18.92;10.90;;;;;;;8.11;77.56;96503.22;5116588;28;20059;-62
2022/12/07 07:46:01;;;;;;;19.73;11.48;;;;;;;8.11;78.13;96511.91;5116660;28;20100;-63
2022/12/07 07:48:28;;;;;;;21.15;12.27;;;;;;;8.10;78.00;96515.41;5116624;28;20050;-63
2022/12/07 07:50:55;;;;;;;19.52;11.90;;;;;;;8.09;78.00;96514.56;5116646;28;20066;-63
2022/12/07 07:53:22;;;;;;;19.05;11.77;;;;;;;8.12;77.84;96508.38;5116469;28;20370;-63
2022/12/07 07:55:54;;;;;;;18.02;12.35;;;;;;;8.22;77.75;96509.00;5116365;28;20047;-63
2022/12/07 07:58:22;;;;;;;24.23;12.50;;;;;;;8.37;77.54;96509.44;5116436;28;20128;-63
2022/12/07 08:00:51;;;;;;;16.88;11.75;;;;;;;8.46;77.19;96502.19;5116326;28;20047;-63
2022/12/07 08:03:18;;;;;;;21.55;14.15;;;;;;;8.47;77.77;96505.66;5115788;28;20484;-63
2022/12/07 08:05:46;;;;;;;27.33;16.15;;;;;;;8.50;77.33;96505.56;5116287;28;20611;-63
2022/12/07 08:08:13;;;;;;;31.02;17.45;;;;;;;8.58;76.98;96505.38;5116095;28;20040;-63
2022/12/07 08:10:40;;;;;;;29.30;16.48;;;;;;;8.76;76.24;96505.69;5116124;28;20090;-62
2022/12/07 08:13:13;;;;;;;26.00;15.65;;;;;;;8.82;74.90;96495.06;5116198;28;20047;-62
2022/12/07 08:15:42;;;;;;;21.17;14.13;;;;;;;8.93;74.76;96503.41;5116141;28;20516;-62
2022/12/07 08:18:16;;;;;;;25.10;13.85;;;;;;;9.15;74.13;96499.25;5116251;28;20089;-62
2022/12/07 08:20:44;;;;;;;14.98;11.20;;;;;;;8.94;71.95;96491.22;5115802;28;20045;-62
2022/12/07 08:23:12;;;;;;;19.60;13.07;;;;;;;9.00;72.39;96490.16;5115981;28;20079;-62
2022/12/07 08:25:40;;;;;;;20.08;12.80;;;;;;;9.04;72.62;96495.22;5115895;28;20063;-62
2022/12/07 08:28:07;;;;;;;19.90;13.80;;;;;;;9.12;71.84;96501.94;5115859;28;20046;-62
2022/12/07 08:30:34;;;;;;;20.40;12.85;;;;;;;9.10;71.46;96502.00;5115758;28;20094;-62
2022/12/07 08:33:03;;;;;;;16.13;11.73;;;;;;;9.10;70.81;96502.84;5115690;28;20104;-62
2022/12/07 08:35:34;;;;;;;19.05;11.73;;;;;;;9.03;70.78;96509.16;5115789;28;20126;-62
2022/12/07 08:38:02;;;;;;;20.90;12.40;;;;;;;8.95;71.70;96500.75;5115873;28;20122;-62
2022/12/07 08:40:29;;;;;;;19.17;12.48;;;;;;;8.89;72.00;96503.53;5115384;28;20051;-62
2022/12/07 08:42:56;;;;;;;20.15;12.80;;;;;;;8.81;71.69;96494.22;5115443;28;20057;-62
2022/12/07 08:45:23;;;;;;;22.13;13.52;;;;;;;8.72;72.36;96502.31;5115563;28;20051;-62
2022/12/07 08:47:56;;;;;;;18.83;11.88;;;;;;;8.64;71.86;96496.50;5115539;28;20043;-62
2022/12/07 08:50:24;;;;;;;19.75;12.18;;;;;;;8.59;72.14;96494.03;5115354;28;20051;-62
2022/12/07 08:52:56;;;;;;;18.60;12.25;;;;;;;8.65;72.70;96488.63;5115374;28;20051;-62
2022/12/07 08:55:24;;;;;;;19.38;12.10;;;;;;;8.67;72.88;96480.75;5115362;28;20493;-62
2022/12/07 08:57:52;;;;;;;17.75;11.55;;;;;;;8.74;73.02;96481.41;5115275;28;20052;-62
2022/12/07 09:00:19;;;;;;;27.08;12.25;;;;;;;8.77;73.62;96476.97;5115190;28;20435;-62
2022/12/07 09:02:48;;;;;;;24.23;12.85;;;;;;;8.80;72.65;96470.78;5115026;28;20055;-62
2022/12/07 09:05:15;;;;;;;20.77;11.48;;;;;;;8.94;72.17;96479.00;5115126;28;20047;-62
2022/12/07 09:07:44;;;;;;;22.45;11.10;;;;;;;9.18;71.48;96463.44;5115073;28;20401;-62
2022/12/07 09:10:13;;;;;;;23.88;10.95;;;;;;;9.21;70.02;96472.91;5114973;28;20051;-63
2022/12/07 09:12:40;;;;;;;23.40;11.70;;;;;;;9.25;69.91;96471.06;5114891;28;20048;-61
2022/12/07 09:15:08;;;;;;;22.73;12.30;;;;;;;9.32;70.42;96470.81;5114052;28;20048;-63
2022/12/07 09:17:37;;;;;;;25.38;11.95;;;;;;;9.47;70.20;96468.56;5114846;28;20079;-63
2022/12/07 09:20:06;;;;;;;19.70;12.07;;;;;;;9.61;69.67;96462.88;5114934;28;20047;-63
2022/12/07 09:22:33;;;;;;;23.67;12.65;;;;;;;9.60;70.12;96462.03;5114603;28;20092;-63
2022/12/07 09:25:01;;;;;;;27.30;12.48;;;;;;;9.66;69.00;96458.31;5114787;28;20043;-63
2022/12/07 09:27:30;;;;;;;19.88;11.80;;;;;;;9.69;69.47;96458.22;5114609;28;20052;-63
2022/12/07 09:29:57;;;;;;;17.60;10.55;;;;;;;9.71;68.24;96455.56;5114566;28;20051;-62
2022/12/07 09:32:25;;;;;;;20.92;10.40;;;;;;;9.72;68.48;96455.50;5114442;28;20162;-63
2022/12/07 09:34:52;;;;;;;19.65;10.18;;;;;;;9.82;68.61;96445.56;5114517;28;20043;-63
2022/12/07 09:37:19;;;;;;;21.55;10.68;;;;;;;9.94;68.27;96438.19;5114596;28;20092;-63
2022/12/07 09:39:46;;;;;;;23.27;11.48;;;;;;;10.08;67.48;96440.28;5114082;28;20052;-63
2022/12/07 09:42:27;;;;;;;22.98;11.85;;;;;;;10.13;67.57;96446.19;5114362;28;20079;-62
2022/12/07 09:44:56;;;;;;;26.05;10.90;;;;;;;10.16;67.72;96440.84;5114364;28;20128;-63
2022/12/07 09:47:23;;;;;;;21.58;11.20;;;;;;;10.23;66.81;96431.88;5114297;28;20086;-63
2022/12/07 09:49:51;;;;;;;18.88;10.57;;;;;;;10.10;67.13;96431.50;5114244;28;20047;-63
2022/12/07 09:52:22;;;;;;;21.30;11.55;;;;;;;10.11;66.61;96429.72;5114211;28;20075;-62
2022/12/07 09:54:51;;;;;;;21.63;10.70;;;;;;;10.14;66.07;96428.75;5114205;28;20043;-63
2022/12/07 09:57:21;;;;;;;18.90;11.35;;;;;;;10.08;65.33;96435.91;5114095;28;20039;-62
2022/12/07 09:59:48;;;;;;;25.58;11.88;;;;;;;10.13;66.52;96427.03;5114144;28;20088;-62
2022/12/07 10:02:35;;;;;;;23.92;11.77;;;;;;;10.15;67.30;96426.09;5113967;28;20043;-63
2022/12/07 10:05:04;;;;;;;19.80;11.13;;;;;;;10.03;67.64;96421.31;5114097;28;20112;-62
2022/12/07 10:07:31;;;;;;;18.60;10.55;;;;;;;10.09;67.26;96423.72;5114002;28;20040;-63
2022/12/07 10:09:58;;;;;;;19.23;10.73;;;;;;;10.17;67.30;96418.19;5113889;28;20100;-62
2022/12/07 10:12:25;;;;;;;28.17;12.13;;;;;;;10.20;67.13;96424.13;5113913;28;20078;-63
2022/12/07 10:15:02;;;;;;;22.65;12.93;;;;;;;10.33;66.92;96416.66;5113762;28;20066;-62
2022/12/07 10:17:38;;;;;;;16.92;10.13;;;;;;;10.46;65.86;96414.47;5113796;28;20050;-63
2022/12/07 10:20:21;;;;;;;23.17;9.63;;;;;;;10.51;64.13;96408.19;5113681;28;20050;-62
2022/12/07 10:23:01;;;;;;;15.98;9.35;;;;;;;10.63;64.57;96407.72;5113587;28;20083;-63
2022/12/07 10:25:33;;;;;;;20.05;10.32;;;;;;;10.73;63.92;96410.81;5113448;28;20047;-63
2022/12/07 10:28:13;;;;;;;16.98;10.13;;;;;;;10.78;63.68;96400.16;5113846;28;20044;-63
2022/12/07 10:30:52;;;;;;;17.50;10.48;;;;;;;10.85;63.41;96404.22;5113829;28;20056;-63
2022/12/07 10:33:35;;;;;;;17.48;9.10;;;;;;;10.77;61.39;96399.28;5113570;28;20097;-63
2022/12/07 10:36:19;;;;;;;17.25;8.90;;;;;;;10.78;62.23;96400.16;5113612;28;20043;-63
2022/12/07 10:38:48;;;;;;;20.08;9.18;;;;;;;10.88;62.05;96391.00;5113687;28;20071;-63
2022/12/07 10:41:16;;;;;;;13.80;8.43;;;;;;;10.97;61.14;96384.53;5113326;28;20052;-62
2022/12/07 10:43:53;;;;;;;16.35;8.95;;;;;;;10.91;60.56;96380.41;5113464;28;20047;-62
2022/12/07 10:46:43;;;;;;;17.90;8.85;;;;;;;10.84;60.46;96373.72;5113504;28;20132;-63
2022/12/07 10:49:44;;;;;;;18.58;9.32;;;;;;;10.80;61.60;96375.63;5113515;28;20485;-63
2022/12/07 10:52:23;;;;;;;17.40;9.18;;;;;;;10.79;63.03;96376.53;5113400;28;20048;-62
2022/12/07 10:55:02;;;;;;;15.75;9.15;;;;;;;10.87;64.32;96382.28;5113267;28;20473;-62
2022/12/07 10:57:44;;;;;;;19.95;9.35;;;;;;;11.05;62.95;96371.97;5113384;28;20134;-62
2022/12/07 11:00:18;;;;;;;22.05;9.27;;;;;;;11.10;63.18;96369.16;5113241;28;20100;-62
2022/12/07 11:03:20;;;;;;;18.60;9.98;;;;;;;11.14;63.27;96370.75;5113250;28;20083;-63
2022/12/07 11:05:55;;;;;;;16.80;9.20;;;;;;;11.25;62.71;96363.25;5113461;28;20051;-63
2022/12/07 11:08:40;;;;;;;26.77;9.75;;;;;;;11.32;62.15;96353.34;5113255;28;20047;-62
2022/12/07 11:11:14;;;;;;;19.20;11.27;;;;;;;11.16;63.14;96352.31;5113151;28;20044;-63
2022/12/07 11:13:48;;;;;;;17.00;10.13;;;;;;;10.99;61.41;96351.31;5113198;28;20525;-63
2022/12/07 11:16:25;;;;;;;17.50;9.18;;;;;;;11.05;61.18;96337.09;5113283;28;20122;-62
2022/12/07 11:19:20;;;;;;;16.42;9.55;;;;;;;10.96;61.59;96336.56;5113227;28;20044;-63
2022/12/07 11:21:57;;;;;;;18.85;8.80;;;;;;;10.93;62.86;96339.31;5105515;28;20513;-62
2022/12/07 11:24:31;;;;;;;19.40;9.80;;;;;;;10.99;62.98;96346.06;5113082;28;20086;-63
2022/12/07 11:27:10;;;;;;;16.48;9.68;;;;;;;11.09;62.12;96336.91;5113091;28;20489;-63
2022/12/07 11:29:51;;;;;;;14.75;8.40;;;;;;;11.17;61.56;96333.94;5113074;28;20056;-63
2022/12/07 11:32:30;;;;;;;12.80;7.47;;;;;;;11.16;60.96;96337.47;5113115;28;20097;-62
2022/12/07 11:35:07;;;;;;;13.15;8.13;;;;;;;11.14;61.02;96331.47;5113105;28;20496;-63
2022/12/07 11:37:38;;;;;;;15.52;8.20;;;;;;;11.16;60.74;96332.22;5113269;28;20051;-63
2022/12/07 11:40:12;;;;;;;;;;;;;;;11.04;59.70;96324.91;5116907;28;20094;-63
2022/12/07 11:42:46;;;;;;;17.30;8.88;;;;;;;10.90;61.06;96331.63;5116677;28;19955;-63
2022/12/07 11:45:17;;;;;;;18.73;8.60;;;;;;;10.83;61.63;96323.16;5116563;28;20447;-63
2022/12/07 11:47:49;;;;;;;14.77;8.73;;;;;;;10.80;62.05;96318.06;5116676;28;20058;-63